sensor_id;sensor_type;location;lat;lon;timestamp;pressure;altitude;pressure_sealevel;temperature;humidity
3668;BME280;24099;47.102;15.440;2023-02-10T00:01:21;98949.13;;;-7.25;100.00
3668;BME280;24099;47.102;15.440;2023-02-10T00:03:49;98953.31;;;-7.19;100.00
3668;BME280;24099;47.102;15.440;2023-02-10T00:06:21;98945.47;;;-7.12;100.00
3668;BME280;24099;47.102;15.440;2023-02-10T00:08:53;98945.44;;;-7.10;100.00
3668;BME280;24099;47.102;15.440;2023-02-10T00:11:22;98955.56;;;-7.04;100.00
3668;BME280;24099;47.102;15.440;2023-02-10T00:14:11;98953.13;;;-7.12;100.00
3668;BME280;24099;47.102;15.440;2023-02-10T00:16:40;98946.59;;;-7.25;100.00
3668;BME280;24099;47.102;15.440;2023-02-10T00:19:08;98942.41;;;-7.31;100.00
3668;BME280;24099;47.102;15.440;2023-02-10T00:21:36;98944.00;;;-7.23;100.00
3668;BME280;24099;47.102;15.440;2023-02-10T00:24:06;98937.00;;;-7.15;100.00
3668;BME280;24099;47.102;15.440;2023-02-10T00:26:34;98937.69;;;-7.06;100.00
3668;BME280;24099;47.102;15.440;2023-02-10T00:29:02;98933.72;;;-7.20;100.00
3668;BME280;24099;47.102;15.440;2023-02-10T00:31:31;98938.91;;;-7.25;100.00
3668;BME280;24099;47.102;15.440;2023-02-10T00:33:59;98948.34;;;-7.28;100.00
3668;BME280;24099;47.102;15.440;2023-02-10T00:36:27;98940.72;;;-7.32;100.00
3668;BME280;24099;47.102;15.440;2023-02-10T00:38:55;98943.34;;;-7.36;100.00
3668;BME280;24099;47.102;15.440;2023-02-10T00:41:25;98944.25;;;-7.39;100.00
3668;BME280;24099;47.102;15.440;2023-02-10T00:43:53;98945.03;;;-7.34;100.00
3668;BME280;24099;47.102;15.440;2023-02-10T00:46:22;98948.47;;;-7.36;100.00
3668;BME280;24099;47.102;15.440;2023-02-10T00:48:51;98938.09;;;-7.27;100.00
3668;BME280;24099;47.102;15.440;2023-02-10T00:51:22;98935.63;;;-7.32;100.00
3668;BME280;24099;47.102;15.440;2023-02-10T00:53:50;98938.38;;;-7.42;100.00
3668;BME280;24099;47.102;15.440;2023-02-10T00:56:19;98939.91;;;-7.34;100.00
3668;BME280;24099;47.102;15.440;2023-02-10T00:58:57;98939.00;;;-7.30;100.00
3668;BME280;24099;47.102;15.440;2023-02-10T01:01:25;98936.66;;;-7.40;100.00
3668;BME280;24099;47.102;15.440;2023-02-10T01:03:52;98935.94;;;-7.50;100.00
3668;BME280;24099;47.102;15.440;2023-02-10T01:06:21;98939.34;;;-7.49;100.00
3668;BME280;24099;47.102;15.440;2023-02-10T01:08:49;98935.63;;;-7.32;100.00
3668;BME280;24099;47.102;15.440;2023-02-10T01:11:16;98938.38;;;-7.42;100.00
3668;BME280;24099;47.102;15.440;2023-02-10T01:13:47;98929.06;;;-7.45;100.00
3668;BME280;24099;47.102;15.440;2023-02-10T01:16:16;98935.97;;;-7.51;100.00
3668;BME280;24099;47.102;15.440;2023-02-10T01:18:45;98940.72;;;-7.32;100.00
3668;BME280;24099;47.102;15.440;2023-02-10T01:21:16;98937.41;;;-7.37;100.00
3668;BME280;24099;47.102;15.440;2023-02-10T01:23:45;98934.81;;;-7.35;100.00
3668;BME280;24099;47.102;15.440;2023-02-10T01:26:14;98930.97;;;-7.57;100.00
3668;BME280;24099;47.102;15.440;2023-02-10T01:28:43;98938.81;;;-7.67;100.00
3668;BME280;24099;47.102;15.440;2023-02-10T01:31:16;98932.72;;;-7.59;100.00
3668;BME280;24099;47.102;15.440;2023-02-10T01:33:58;98926.09;;;-7.71;100.00
3668;BME280;24099;47.102;15.440;2023-02-10T01:36:26;98930.38;;;-7.72;100.00
3668;BME280;24099;47.102;15.440;2023-02-10T01:38:54;98925.22;;;-7.69;100.00
3668;BME280;24099;47.102;15.440;2023-02-10T01:41:25;98929.22;;;-7.55;100.00
3668;BME280;24099;47.102;15.440;2023-02-10T01:44:04;98926.59;;;-7.51;100.00
3668;BME280;24099;47.102;15.440;2023-02-10T01:46:35;98920.63;;;-7.51;100.00
3668;BME280;24099;47.102;15.440;2023-02-10T01:49:08;98916.91;;;-7.34;100.00
3668;BME280;24099;47.102;15.440;2023-02-10T01:51:41;98921.94;;;-7.31;100.00
3668;BME280;24099;47.102;15.440;2023-02-10T01:54:13;98926.59;;;-7.51;100.00
3668;BME280;24099;47.102;15.440;2023-02-10T01:56:42;98931.00;;;-7.59;100.00
3668;BME280;24099;47.102;15.440;2023-02-10T01:59:27;98926.50;;;-7.45;100.00
3668;BME280;24099;47.102;15.440;2023-02-10T02:02:00;98923.31;;;-7.59;100.00
3668;BME280;24099;47.102;15.440;2023-02-10T02:04:33;98929.59;;;-7.77;100.00
3668;BME280;24099;47.102;15.440;2023-02-10T02:07:02;98927.97;;;-7.79;100.00
3668;BME280;24099;47.102;15.440;2023-02-10T02:09:30;98918.69;;;-7.85;100.00
3668;BME280;24099;47.102;15.440;2023-02-10T02:12:02;98918.53;;;-7.77;100.00
3668;BME280;24099;47.102;15.440;2023-02-10T02:14:36;98916.25;;;-7.94;100.00
3668;BME280;24099;47.102;15.440;2023-02-10T02:17:14;98909.31;;;-7.86;100.00
3668;BME280;24099;47.102;15.440;2023-02-10T02:23:55;98901.06;;;-8.00;100.00
3668;BME280;24099;47.102;15.440;2023-02-10T02:30:09;98903.19;;;-7.76;100.00
3668;BME280;24099;47.102;15.440;2023-02-10T02:32:45;98904.63;;;-8.12;100.00
3668;BME280;24099;47.102;15.440;2023-02-10T02:35:19;98903.63;;;-8.00;100.00
3668;BME280;24099;47.102;15.440;2023-02-10T02:37:49;98905.03;;;-7.84;100.00
3668;BME280;24099;47.102;15.440;2023-02-10T02:40:20;98896.50;;;-7.83;100.00
3668;BME280;24099;47.102;15.440;2023-02-10T02:42:47;98902.34;;;-7.78;100.00
3668;BME280;24099;47.102;15.440;2023-02-10T02:45:21;98903.28;;;-7.80;100.00
3668;BME280;24099;47.102;15.440;2023-02-10T02:48:10;98902.56;;;-7.88;100.00
3668;BME280;24099;47.102;15.440;2023-02-10T02:50:46;98899.41;;;-8.03;100.00
3668;BME280;24099;47.102;15.440;2023-02-10T02:53:27;98901.38;;;-7.69;100.00
3668;BME280;24099;47.102;15.440;2023-02-10T02:56:06;98893.19;;;-7.88;100.00
3668;BME280;24099;47.102;15.440;2023-02-10T02:58:53;98896.94;;;-8.09;100.00
3668;BME280;24099;47.102;15.440;2023-02-10T03:01:29;98904.56;;;-8.07;100.00
3668;BME280;24099;47.102;15.440;2023-02-10T03:04:01;98901.72;;;-7.89;100.00
3668;BME280;24099;47.102;15.440;2023-02-10T03:06:33;98899.09;;;-7.86;100.00
3668;BME280;24099;47.102;15.440;2023-02-10T03:09:01;98903.47;;;-7.92;100.00
3668;BME280;24099;47.102;15.440;2023-02-10T03:11:29;98900.59;;;-8.23;100.00
3668;BME280;24099;47.102;15.440;2023-02-10T03:14:01;98902.94;;;-8.11;100.00
3668;BME280;24099;47.102;15.440;2023-02-10T03:16:29;98907.34;;;-8.19;100.00
3668;BME280;24099;47.102;15.440;2023-02-10T03:18:59;98903.84;;;-8.15;100.00
3668;BME280;24099;47.102;15.440;2023-02-10T03:21:27;98911.41;;;-8.09;100.00
3668;BME280;24099;47.102;15.440;2023-02-10T03:23:55;98914.00;;;-8.12;100.00
3668;BME280;24099;47.102;15.440;2023-02-10T03:26:23;98910.59;;;-8.11;100.00
3668;BME280;24099;47.102;15.440;2023-02-10T03:28:52;98912.38;;;-8.16;100.00
3668;BME280;24099;47.102;15.440;2023-02-10T03:31:20;98919.13;;;-8.12;100.00
3668;BME280;24099;47.102;15.440;2023-02-10T03:33:48;98918.16;;;-8.04;100.00
3668;BME280;24099;47.102;15.440;2023-02-10T03:36:17;98926.06;;;-8.20;100.00
3668;BME280;24099;47.102;15.440;2023-02-10T03:38:44;98925.97;;;-8.14;100.00
3668;BME280;24099;47.102;15.440;2023-02-10T03:41:12;98919.47;;;-8.33;100.00
3668;BME280;24099;47.102;15.440;2023-02-10T03:43:40;98927.06;;;-8.30;100.00
3668;BME280;24099;47.102;15.440;2023-02-10T03:46:10;98924.38;;;-8.21;100.00
3668;BME280;24099;47.102;15.440;2023-02-10T03:48:38;98929.50;;;-8.23;100.00
3668;BME280;24099;47.102;15.440;2023-02-10T03:51:07;98938.06;;;-8.27;100.00
3668;BME280;24099;47.102;15.440;2023-02-10T03:53:36;98935.47;;;-8.24;100.00
3668;BME280;24099;47.102;15.440;2023-02-10T03:56:05;98938.13;;;-8.31;100.00
3668;BME280;24099;47.102;15.440;2023-02-10T03:58:33;98932.88;;;-8.19;100.00
3668;BME280;24099;47.102;15.440;2023-02-10T04:01:08;98933.78;;;-8.23;100.00
3668;BME280;24099;47.102;15.440;2023-02-10T04:03:36;98946.34;;;-8.11;100.00
3668;BME280;24099;47.102;15.440;2023-02-10T04:06:05;98951.50;;;-8.14;100.00
3668;BME280;24099;47.102;15.440;2023-02-10T04:08:33;98955.53;;;-8.00;100.00
3668;BME280;24099;47.102;15.440;2023-02-10T04:11:02;98950.53;;;-8.07;100.00
3668;BME280;24099;47.102;15.440;2023-02-10T04:13:30;98951.69;;;-8.26;100.00
3668;BME280;24099;47.102;15.440;2023-02-10T04:16:03;98941.31;;;-8.17;100.00
3668;BME280;24099;47.102;15.440;2023-02-10T04:18:31;98943.84;;;-8.14;100.00
3668;BME280;24099;47.102;15.440;2023-02-10T04:20:59;98945.63;;;-8.19;100.00
3668;BME280;24099;47.102;15.440;2023-02-10T04:23:28;98939.72;;;-8.21;100.00
3668;BME280;24099;47.102;15.440;2023-02-10T04:25:56;98942.72;;;-7.98;100.00
3668;BME280;24099;47.102;15.440;2023-02-10T04:28:26;98942.97;;;-8.13;100.00
3668;BME280;24099;47.102;15.440;2023-02-10T04:30:54;98936.22;;;-8.17;100.00
3668;BME280;24099;47.102;15.440;2023-02-10T04:33:23;98940.00;;;-8.40;100.00
3668;BME280;24099;47.102;15.440;2023-02-10T04:35:51;98933.94;;;-8.32;100.00
3668;BME280;24099;47.102;15.440;2023-02-10T04:38:20;98931.38;;;-8.32;100.00
3668;BME280;24099;47.102;15.440;2023-02-10T04:40:50;98931.53;;;-8.42;100.00
3668;BME280;24099;47.102;15.440;2023-02-10T04:43:18;98922.91;;;-8.36;100.00
3668;BME280;24099;47.102;15.440;2023-02-10T04:45:47;98927.16;;;-8.35;100.00
3668;BME280;24099;47.102;15.440;2023-02-10T04:48:15;98934.72;;;-8.30;100.00
3668;BME280;24099;47.102;15.440;2023-02-10T04:50:43;98934.53;;;-8.18;100.00
3668;BME280;24099;47.102;15.440;2023-02-10T04:53:11;98934.97;;;-8.46;100.00
3668;BME280;24099;47.102;15.440;2023-02-10T04:55:38;98951.09;;;-8.42;100.00
3668;BME280;24099;47.102;15.440;2023-02-10T04:58:06;98941.66;;;-8.37;100.00
3668;BME280;24099;47.102;15.440;2023-02-10T05:00:34;98951.09;;;-8.42;100.00
3668;BME280;24099;47.102;15.440;2023-02-10T05:03:03;98945.19;;;-8.44;100.00
3668;BME280;24099;47.102;15.440;2023-02-10T05:05:31;98950.97;;;-8.35;100.00
3668;BME280;24099;47.102;15.440;2023-02-10T05:07:58;98957.81;;;-8.37;100.00
3668;BME280;24099;47.102;15.440;2023-02-10T05:10:26;98957.03;;;-8.40;100.00
3668;BME280;24099;47.102;15.440;2023-02-10T05:12:54;98956.13;;;-8.39;100.00
3668;BME280;24099;47.102;15.440;2023-02-10T05:15:22;98963.94;;;-8.47;100.00
3668;BME280;24099;47.102;15.440;2023-02-10T05:17:50;98961.22;;;-8.36;100.00
3668;BME280;24099;47.102;15.440;2023-02-10T05:20:19;98967.16;;;-8.36;100.00
3668;BME280;24099;47.102;15.440;2023-02-10T05:22:48;98959.66;;;-8.46;100.00
3668;BME280;24099;47.102;15.440;2023-02-10T05:25:18;98962.22;;;-8.46;100.00
3668;BME280;24099;47.102;15.440;2023-02-10T05:27:46;98959.34;;;-8.25;100.00
3668;BME280;24099;47.102;15.440;2023-02-10T05:30:15;98965.69;;;-8.52;100.00
3668;BME280;24099;47.102;15.440;2023-02-10T05:32:43;98965.72;;;-8.53;100.00
3668;BME280;24099;47.102;15.440;2023-02-10T05:35:11;98967.25;;;-8.42;100.00
3668;BME280;24099;47.102;15.440;2023-02-10T05:37:40;98962.19;;;-8.45;100.00
3668;BME280;24099;47.102;15.440;2023-02-10T05:40:09;98964.78;;;-8.48;100.00
3668;BME280;24099;47.102;15.440;2023-02-10T05:42:39;98961.28;;;-8.41;100.00
3668;BME280;24099;47.102;15.440;2023-02-10T05:45:08;98967.34;;;-8.48;100.00
3668;BME280;24099;47.102;15.440;2023-02-10T05:47:36;98969.94;;;-8.52;100.00
3668;BME280;24099;47.102;15.440;2023-02-10T05:50:04;98969.94;;;-8.52;100.00
3668;BME280;24099;47.102;15.440;2023-02-10T05:52:33;98971.59;;;-8.47;100.00
3668;BME280;24099;47.102;15.440;2023-02-10T05:55:03;98967.41;;;-8.54;100.00
3668;BME280;24099;47.102;15.440;2023-02-10T05:57:31;98971.59;;;-8.47;100.00
3668;BME280;24099;47.102;15.440;2023-02-10T05:59:59;98973.94;;;-8.35;100.00
3668;BME280;24099;47.102;15.440;2023-02-10T06:02:27;98984.84;;;-8.23;100.00
3668;BME280;24099;47.102;15.440;2023-02-10T06:04:55;98985.66;;;-8.21;100.00
3668;BME280;24099;47.102;15.440;2023-02-10T06:07:28;98982.34;;;-8.26;100.00
3668;BME280;24099;47.102;15.440;2023-02-10T06:09:56;98973.34;;;-8.52;100.00
3668;BME280;24099;47.102;15.440;2023-02-10T06:12:27;98975.75;;;-8.40;100.00
3668;BME280;24099;47.102;15.440;2023-02-10T06:14:55;98987.69;;;-8.43;100.00
3668;BME280;24099;47.102;15.440;2023-02-10T06:17:23;98987.69;;;-8.42;100.00
3668;BME280;24099;47.102;15.440;2023-02-10T06:19:53;98992.88;;;-8.48;100.00
3668;BME280;24099;47.102;15.440;2023-02-10T06:22:23;98999.75;;;-8.56;100.00
3668;BME280;24099;47.102;15.440;2023-02-10T06:24:51;98993.75;;;-8.50;100.00
3668;BME280;24099;47.102;15.440;2023-02-10T06:27:18;99002.25;;;-8.50;100.00
3668;BME280;24099;47.102;15.440;2023-02-10T06:29:49;99005.72;;;-8.55;100.00
3668;BME280;24099;47.102;15.440;2023-02-10T06:32:18;99009.84;;;-8.44;100.00
3668;BME280;24099;47.102;15.440;2023-02-10T06:34:46;99008.97;;;-8.41;100.00
3668;BME280;24099;47.102;15.440;2023-02-10T06:37:16;99010.53;;;-8.34;100.00
3668;BME280;24099;47.102;15.440;2023-02-10T06:39:44;99019.03;;;-8.33;100.00
3668;BME280;24099;47.102;15.440;2023-02-10T06:42:13;99028.25;;;-8.23;100.00
3668;BME280;24099;47.102;15.440;2023-02-10T06:44:41;99033.22;;;-8.14;100.00
3668;BME280;24099;47.102;15.440;2023-02-10T06:47:10;99042.81;;;-8.31;100.00
3668;BME280;24099;47.102;15.440;2023-02-10T06:49:37;99036.78;;;-8.24;100.00
3668;BME280;24099;47.102;15.440;2023-02-10T06:52:07;99034.94;;;-8.16;100.00
3668;BME280;24099;47.102;15.440;2023-02-10T06:54:34;99033.13;;;-8.07;100.00
3668;BME280;24099;47.102;15.440;2023-02-10T06:57:02;99036.66;;;-8.18;100.00
3668;BME280;24099;47.102;15.440;2023-02-10T06:59:32;99048.50;;;-8.11;100.00
3668;BME280;24099;47.102;15.440;2023-02-10T07:02:00;99036.56;;;-8.11;100.00
3668;BME280;24099;47.102;15.440;2023-02-10T07:04:32;99049.16;;;-7.97;100.00
3668;BME280;24099;47.102;15.440;2023-02-10T07:07:00;99059.25;;;-7.89;100.00
3668;BME280;24099;47.102;15.440;2023-02-10T07:09:28;99053.38;;;-7.96;100.00
3668;BME280;24099;47.102;15.440;2023-02-10T07:11:58;99058.47;;;-7.93;100.00
3668;BME280;24099;47.102;15.440;2023-02-10T07:14:27;99066.16;;;-7.94;100.00
3668;BME280;24099;47.102;15.440;2023-02-10T07:16:54;99060.13;;;-7.90;100.00
3668;BME280;24099;47.102;15.440;2023-02-10T07:19:27;99058.44;;;-7.91;100.00
3668;BME280;24099;47.102;15.440;2023-02-10T07:21:56;99067.78;;;-7.90;100.00
3668;BME280;24099;47.102;15.440;2023-02-10T07:24:24;99065.22;;;-7.89;100.00
3668;BME280;24099;47.102;15.440;2023-02-10T07:26:52;99065.69;;;-7.62;100.00
3668;BME280;24099;47.102;15.440;2023-02-10T07:29:20;99065.72;;;-7.64;100.00
3668;BME280;24099;47.102;15.440;2023-02-10T07:31:48;99056.25;;;-7.59;100.00
3668;BME280;24099;47.102;15.440;2023-02-10T07:34:17;99056.34;;;-7.63;100.00
3668;BME280;24099;47.102;15.440;2023-02-10T07:36:48;99054.41;;;-7.49;100.00
3668;BME280;24099;47.102;15.440;2023-02-10T07:39:24;99051.78;;;-7.46;100.00
3668;BME280;24099;47.102;15.440;2023-02-10T07:41:52;99052.41;;;-7.34;100.00
3668;BME280;24099;47.102;15.440;2023-02-10T07:44:27;99054.03;;;-7.28;100.00
3668;BME280;24099;47.102;15.440;2023-02-10T07:46:56;99061.00;;;-7.38;100.00
3668;BME280;24099;47.102;15.440;2023-02-10T07:49:25;99056.69;;;-7.34;100.00
3668;BME280;24099;47.102;15.440;2023-02-10T07:51:55;99065.19;;;-7.32;100.00
3668;BME280;24099;47.102;15.440;2023-02-10T07:54:24;99065.16;;;-7.31;100.00
3668;BME280;24099;47.102;15.440;2023-02-10T07:56:51;99062.03;;;-6.99;100.00
3668;BME280;24099;47.102;15.440;2023-02-10T07:59:19;99058.78;;;-7.07;100.00
3668;BME280;24099;47.102;15.440;2023-02-10T08:01:48;99065.28;;;-6.89;100.00
3668;BME280;24099;47.102;15.440;2023-02-10T08:04:21;99067.84;;;-6.89;100.00
3668;BME280;24099;47.102;15.440;2023-02-10T08:06:48;99057.53;;;-6.84;100.00
3668;BME280;24099;47.102;15.440;2023-02-10T08:09:16;99063.19;;;-6.67;100.00
3668;BME280;24099;47.102;15.440;2023-02-10T08:11:45;99068.38;;;-6.72;100.00
3668;BME280;24099;47.102;15.440;2023-02-10T08:14:13;99066.41;;;-6.57;100.00
3668;BME280;24099;47.102;15.440;2023-02-10T08:16:47;99068.47;;;-6.33;100.00
3668;BME280;24099;47.102;15.440;2023-02-10T08:19:14;99058.75;;;-6.17;100.00
3668;BME280;24099;47.102;15.440;2023-02-10T08:21:42;99048.31;;;-6.08;100.00
3668;BME280;24099;47.102;15.440;2023-02-10T08:24:11;99045.63;;;-6.02;100.00
3668;BME280;24099;47.102;15.440;2023-02-10T08:26:42;99039.41;;;-5.92;100.00
3668;BME280;24099;47.102;15.440;2023-02-10T08:29:12;99038.28;;;-5.80;100.00
3668;BME280;24099;47.102;15.440;2023-02-10T08:31:41;99045.34;;;-5.55;100.00
3668;BME280;24099;47.102;15.440;2023-02-10T08:34:14;99041.22;;;-5.26;100.00
3668;BME280;24099;47.102;15.440;2023-02-10T08:36:42;99036.59;;;-5.12;100.00
3668;BME280;24099;47.102;15.440;2023-02-10T08:39:10;99041.00;;;-4.84;100.00
3668;BME280;24099;47.102;15.440;2023-02-10T08:41:38;99042.19;;;-3.77;100.00
3668;BME280;24099;47.102;15.440;2023-02-10T08:44:06;99045.34;;;-3.97;100.00
3668;BME280;24099;47.102;15.440;2023-02-10T08:46:37;99038.09;;;-3.83;100.00
3668;BME280;24099;47.102;15.440;2023-02-10T08:49:04;99028.97;;;-3.14;100.00
3668;BME280;24099;47.102;15.440;2023-02-10T08:51:33;99025.78;;;-2.70;100.00
3668;BME280;24099;47.102;15.440;2023-02-10T08:54:03;99020.31;;;-2.86;100.00
3668;BME280;24099;47.102;15.440;2023-02-10T08:56:30;99028.16;;;-2.89;100.00
3668;BME280;24099;47.102;15.440;2023-02-10T08:59:00;99027.06;;;-2.12;100.00
3668;BME280;24099;47.102;15.440;2023-02-10T09:01:29;99026.53;;;-1.98;100.00
3668;BME280;24099;47.102;15.440;2023-02-10T09:03:58;99029.19;;;-1.78;100.00
3668;BME280;24099;47.102;15.440;2023-02-10T09:06:27;99025.47;;;-1.49;100.00
3668;BME280;24099;47.102;15.440;2023-02-10T09:08:57;99026.75;;;-0.97;100.00
3668;BME280;24099;47.102;15.440;2023-02-10T09:11:26;99025.78;;;0.21;100.00
3668;BME280;24099;47.102;15.440;2023-02-10T09:13:55;99021.84;;;0.67;100.00
3668;BME280;24099;47.102;15.440;2023-02-10T09:16:23;99022.47;;;0.37;100.00
3668;BME280;24099;47.102;15.440;2023-02-10T09:18:54;99021.22;;;1.31;100.00
3668;BME280;24099;47.102;15.440;2023-02-10T09:21:24;99021.81;;;0.50;100.00
3668;BME280;24099;47.102;15.440;2023-02-10T09:23:53;99025.19;;;0.87;100.00
3668;BME280;24099;47.102;15.440;2023-02-10T09:26:21;99025.34;;;0.84;100.00
3668;BME280;24099;47.102;15.440;2023-02-10T09:28:50;99025.91;;;1.41;96.45
3668;BME280;24099;47.102;15.440;2023-02-10T09:31:19;99031.63;;;0.97;100.00
3668;BME280;24099;47.102;15.440;2023-02-10T09:33:48;99038.63;;;0.78;100.00
3668;BME280;24099;47.102;15.440;2023-02-10T09:36:18;99030.09;;;0.76;100.00
3668;BME280;24099;47.102;15.440;2023-02-10T09:38:48;99026.72;;;0.91;100.00
3668;BME280;24099;47.102;15.440;2023-02-10T09:41:25;99022.81;;;1.67;100.00
3668;BME280;24099;47.102;15.440;2023-02-10T09:44:06;99023.31;;;1.58;100.00
3668;BME280;24099;47.102;15.440;2023-02-10T09:47:10;99025.94;;;1.89;94.39
3668;BME280;24099;47.102;15.440;2023-02-10T09:49:52;99026.31;;;1.99;91.04
3668;BME280;24099;47.102;15.440;2023-02-10T09:52:32;99033.44;;;2.11;89.38
3668;BME280;24099;47.102;15.440;2023-02-10T09:55:12;99027.72;;;2.04;86.24
3668;BME280;24099;47.102;15.440;2023-02-10T09:57:42;99023.44;;;2.03;84.32
3668;BME280;24099;47.102;15.440;2023-02-10T10:00:21;99029.63;;;2.48;83.31
3668;BME280;24099;47.102;15.440;2023-02-10T10:02:56;99019.44;;;2.14;82.38
3668;BME280;24099;47.102;15.440;2023-02-10T10:05:36;99019.00;;;2.83;84.56
3668;BME280;24099;47.102;15.440;2023-02-10T10:08:17;99012.06;;;2.67;79.92
3668;BME280;24099;47.102;15.440;2023-02-10T10:10:47;99018.97;;;3.71;76.48
3668;BME280;24099;47.102;15.440;2023-02-10T10:13:22;99021.00;;;3.52;75.73
3668;BME280;24099;47.102;15.440;2023-02-10T10:16:03;99005.47;;;3.78;71.75
3668;BME280;24099;47.102;15.440;2023-02-10T10:18:39;99010.56;;;2.79;69.62
3668;BME280;24099;47.102;15.440;2023-02-10T10:21:13;99012.28;;;2.49;73.02
3668;BME280;24099;47.102;15.440;2023-02-10T10:23:52;99009.34;;;2.85;72.23
3668;BME280;24099;47.102;15.440;2023-02-10T10:26:40;99007.44;;;3.02;71.15
3668;BME280;24099;47.102;15.440;2023-02-10T10:29:21;99008.59;;;3.27;71.60
3668;BME280;24099;47.102;15.440;2023-02-10T10:31:57;99002.47;;;3.99;68.98
3668;BME280;24099;47.102;15.440;2023-02-10T10:34:28;98988.47;;;4.68;65.96
3668;BME280;24099;47.102;15.440;2023-02-10T10:36:59;98995.78;;;3.80;68.00
3668;BME280;24099;47.102;15.440;2023-02-10T10:39:32;98996.00;;;3.49;67.50
3668;BME280;24099;47.102;15.440;2023-02-10T10:42:12;98986.88;;;3.42;68.63
3668;BME280;24099;47.102;15.440;2023-02-10T10:44:45;98990.47;;;3.25;66.85
3668;BME280;24099;47.102;15.440;2023-02-10T10:47:15;98978.38;;;3.10;68.02
3668;BME280;24099;47.102;15.440;2023-02-10T10:49:44;98980.56;;;3.18;68.29
3668;BME280;24099;47.102;15.440;2023-02-10T10:52:23;98962.91;;;4.06;68.60
3668;BME280;24099;47.102;15.440;2023-02-10T10:54:54;98970.34;;;4.12;67.92
3668;BME280;24099;47.102;15.440;2023-02-10T10:57:23;98977.03;;;4.43;67.94
3668;BME280;24099;47.102;15.440;2023-02-10T10:59:55;98978.69;;;4.71;67.17
3668;BME280;24099;47.102;15.440;2023-02-10T11:02:25;98968.50;;;4.94;66.92
3668;BME280;24099;47.102;15.440;2023-02-10T11:05:12;98976.03;;;5.11;67.91
3668;BME280;24099;47.102;15.440;2023-02-10T11:07:40;98971.66;;;5.24;66.66
3668;BME280;24099;47.102;15.440;2023-02-10T11:10:21;98963.72;;;5.38;65.20
3668;BME280;24099;47.102;15.440;2023-02-10T11:12:51;98963.19;;;4.95;66.52
3668;BME280;24099;47.102;15.440;2023-02-10T11:15:39;98942.28;;;5.46;66.16
3668;BME280;24099;47.102;15.440;2023-02-10T11:18:14;98944.97;;;5.95;65.82
3668;BME280;24099;47.102;15.440;2023-02-10T11:20:53;98938.78;;;5.83;63.37
3668;BME280;24099;47.102;15.440;2023-02-10T11:23:28;98941.75;;;6.15;63.97
3668;BME280;24099;47.102;15.440;2023-02-10T11:25:59;98944.09;;;6.66;61.56
3668;BME280;24099;47.102;15.440;2023-02-10T11:28:32;98929.28;;;5.95;60.43
3668;BME280;24099;47.102;15.440;2023-02-10T11:31:05;98931.03;;;5.82;60.74
3668;BME280;24099;47.102;15.440;2023-02-10T11:33:35;98931.50;;;6.12;62.32
3668;BME280;24099;47.102;15.440;2023-02-10T11:36:06;98927.59;;;6.42;60.26
3668;BME280;24099;47.102;15.440;2023-02-10T11:38:35;98922.81;;;5.75;61.36
3668;BME280;24099;47.102;15.440;2023-02-10T11:41:06;98927.97;;;6.01;60.76
3668;BME280;24099;47.102;15.440;2023-02-10T11:43:41;98919.75;;;6.42;60.43
3668;BME280;24099;47.102;15.440;2023-02-10T11:46:19;98926.13;;;6.27;60.25
3668;BME280;24099;47.102;15.440;2023-02-10T11:48:53;98919.03;;;6.40;60.37
3668;BME280;24099;47.102;15.440;2023-02-10T11:51:21;98917.00;;;6.08;61.47
3668;BME280;24099;47.102;15.440;2023-02-10T11:53:49;98918.47;;;6.47;57.62
3668;BME280;24099;47.102;15.440;2023-02-10T11:56:22;98914.72;;;6.63;56.63
3668;BME280;24099;47.102;15.440;2023-02-10T11:59:23;98918.34;;;6.38;54.08
3668;BME280;24099;47.102;15.440;2023-02-10T12:01:56;98913.66;;;6.06;54.80
3668;BME280;24099;47.102;15.440;2023-02-10T12:07:44;98916.28;;;6.30;54.80
3668;BME280;24099;47.102;15.440;2023-02-10T12:10:23;98911.59;;;5.86;53.98
3668;BME280;24099;47.102;15.440;2023-02-10T12:13:01;98910.28;;;6.17;53.49
3668;BME280;24099;47.102;15.440;2023-02-10T12:15:38;98905.81;;;6.30;52.08
3668;BME280;24099;47.102;15.440;2023-02-10T12:18:22;98902.06;;;6.45;52.26
3668;BME280;24099;47.102;15.440;2023-02-10T12:21:03;98898.72;;;6.19;50.25
3668;BME280;24099;47.102;15.440;2023-02-10T12:23:43;98889.69;;;5.76;51.37
3668;BME280;24099;47.102;15.440;2023-02-10T12:26:21;98899.75;;;6.30;52.17
3668;BME280;24099;47.102;15.440;2023-02-10T12:29:02;98892.78;;;6.41;51.01
3668;BME280;24099;47.102;15.440;2023-02-10T12:31:44;98884.78;;;6.32;50.94
3668;BME280;24099;47.102;15.440;2023-02-10T12:34:35;98878.19;;;6.50;50.59
3668;BME280;24099;47.102;15.440;2023-02-10T12:37:16;98876.81;;;6.68;50.00
3668;BME280;24099;47.102;15.440;2023-02-10T12:39:54;98867.19;;;6.80;48.23
3668;BME280;24099;47.102;15.440;2023-02-10T12:42:40;98867.69;;;6.39;49.74
3668;BME280;24099;47.102;15.440;2023-02-10T12:45:20;98875.75;;;6.82;48.90
3668;BME280;24099;47.102;15.440;2023-02-10T12:48:01;98873.41;;;6.44;48.71
3668;BME280;24099;47.102;15.440;2023-02-10T12:50:57;98869.84;;;6.91;49.55
3668;BME280;24099;47.102;15.440;2023-02-10T12:53:30;98863.16;;;6.41;48.44
3668;BME280;24099;47.102;15.440;2023-02-10T12:56:05;98855.31;;;6.76;48.92
3668;BME280;24099;47.102;15.440;2023-02-10T12:58:38;98858.03;;;6.04;48.66
3668;BME280;24099;47.102;15.440;2023-02-10T13:01:12;98847.13;;;6.91;48.72
3668;BME280;24099;47.102;15.440;2023-02-10T13:03:46;98848.69;;;6.48;48.89
3668;BME280;24099;47.102;15.440;2023-02-10T13:06:22;98850.97;;;6.52;49.94
3668;BME280;24099;47.102;15.440;2023-02-10T13:08:55;98852.47;;;6.44;50.46
3668;BME280;24099;47.102;15.440;2023-02-10T13:11:33;98853.50;;;6.65;51.62
3668;BME280;24099;47.102;15.440;2023-02-10T13:14:11;98851.16;;;6.96;50.76
3668;BME280;24099;47.102;15.440;2023-02-10T13:16:46;98853.66;;;7.08;51.23
3668;BME280;24099;47.102;15.440;2023-02-10T13:19:27;98856.75;;;7.02;50.55
3668;BME280;24099;47.102;15.440;2023-02-10T13:22:02;98846.63;;;6.86;50.96
3668;BME280;24099;47.102;15.440;2023-02-10T13:24:39;98849.25;;;7.20;50.49
3668;BME280;24099;47.102;15.440;2023-02-10T13:27:23;98847.94;;;6.92;50.92
3668;BME280;24099;47.102;15.440;2023-02-10T13:30:03;98843.19;;;6.75;51.25